Time;durP1;ratioP1;P1;durP2;ratioP2;P2;SDS_P1;SDS_P2;PMS_P1;PMS_P2;Temp;Humidity;BMP_temperature;BMP_pressure;BME280_temperature;BME280_humidity;BME280_pressure;Samples;Min_cycle;Max_cycle;Signal;HPM_P1;HPM_P2
2022/09/26 00:01:20;;;;;;;2.10;2.00;;;;;;;;;;5074698;28;20424;-25
2022/09/26 00:03:47;;;;;;;1.90;1.80;;;;;;;;;;5074380;28;20044;-27
2022/09/26 00:06:16;;;;;;;2.28;2.08;;;;;;;;;;5074665;28;20051;-26
2022/09/26 00:08:42;;;;;;;1.92;1.83;;;;;;;;;;5074771;28;20047;-27
2022/09/26 00:11:09;;;;;;;2.00;1.90;;;;;;;;;;5075135;28;20103;-26
2022/09/26 00:13:37;;;;;;;1.90;1.80;;;;;;;;;;5074752;28;20085;-27
2022/09/26 00:16:03;;;;;;;1.95;1.85;;;;;;;;;;5074762;28;20095;-29
2022/09/26 00:18:30;;;;;;;1.80;1.70;;;;;;;;;;5074527;28;20025;-26
2022/09/26 00:21:03;;;;;;;2.10;2.00;;;;;;;;;;5074515;28;20097;-27
2022/09/26 00:23:29;;;;;;;2.00;1.90;;;;;;;;;;5073949;28;20029;-26
2022/09/26 00:25:57;;;;;;;2.13;2.03;;;;;;;;;;5074438;28;20351;-27
2022/09/26 00:28:24;;;;;;;2.45;2.25;;;;;;;;;;5074674;28;20066;-25
2022/09/26 00:30:50;;;;;;;1.60;1.50;;;;;;;;;;5056688;28;20048;-27
2022/09/26 00:33:16;;;;;;;1.80;1.70;;;;;;;;;;5074271;28;20471;-25
2022/09/26 00:35:50;;;;;;;1.80;1.70;;;;;;;;;;5074603;28;20024;-27
2022/09/26 00:38:16;;;;;;;3.58;2.03;;;;;;;;;;5074594;28;20024;-25
2022/09/26 00:40:42;;;;;;;2.20;2.10;;;;;;;;;;5074306;28;20119;-25
2022/09/26 00:43:26;;;;;;;1.98;1.80;;;;;;;;;;5074165;28;20036;-29
2022/09/26 00:45:54;;;;;;;1.85;1.75;;;;;;;;;;5056604;28;20025;-28
2022/09/26 00:48:20;;;;;;;2.10;2.00;;;;;;;;;;5074222;28;20044;-26
2022/09/26 00:50:47;;;;;;;1.90;1.80;;;;;;;;;;5074124;28;20024;-25
2022/09/26 00:53:17;;;;;;;2.42;1.92;;;;;;;;;;5074106;28;20465;-28
2022/09/26 00:55:49;;;;;;;1.70;1.60;;;;;;;;;;5074095;28;20032;-25
2022/09/26 00:58:26;;;;;;;1.92;1.67;;;;;;;;;;5074127;28;20052;-24
2022/09/26 01:00:52;;;;;;;1.83;1.73;;;;;;;;;;5056909;28;20060;-35
2022/09/26 01:03:19;;;;;;;2.63;2.08;;;;;;;;;;5073757;28;20024;-27
2022/09/26 01:05:46;;;;;;;1.73;1.63;;;;;;;;;;5056444;28;20374;-27
2022/09/26 01:08:13;;;;;;;1.63;1.52;;;;;;;;;;5074022;28;20037;-27
2022/09/26 01:10:39;;;;;;;1.90;1.80;;;;;;;;;;5073930;28;20060;-29
2022/09/26 01:13:07;;;;;;;1.83;1.73;;;;;;;;;;5073905;28;20461;-28
2022/09/26 01:15:35;;;;;;;1.83;1.73;;;;;;;;;;5073888;28;20177;-27
2022/09/26 01:18:02;;;;;;;1.98;1.88;;;;;;;;;;5073895;28;20028;-27
2022/09/26 01:20:47;;;;;;;1.83;1.73;;;;;;;;;;5073924;28;20036;-25
2022/09/26 01:23:16;;;;;;;2.08;1.98;;;;;;;;;;5074089;28;20036;-29
2022/09/26 01:25:42;;;;;;;1.38;1.33;;;;;;;;;;5056301;28;20046;-27
2022/09/26 01:28:11;;;;;;;1.73;1.63;;;;;;;;;;5073867;28;20045;-26
2022/09/26 01:30:46;;;;;;;1.60;1.50;;;;;;;;;;5073771;28;20028;-29
2022/09/26 01:33:27;;;;;;;1.92;1.67;;;;;;;;;;5073866;28;20021;-26
2022/09/26 01:36:12;;;;;;;2.00;1.90;;;;;;;;;;5075555;28;20036;-27
2022/09/26 01:38:45;;;;;;;1.73;1.63;;;;;;;;;;5077283;28;20021;-26
2022/09/26 01:41:32;;;;;;;1.90;1.80;;;;;;;;;;5077507;28;20050;-30
2022/09/26 01:44:14;;;;;;;1.60;1.50;;;;;;;;;;5077399;28;20048;-25
2022/09/26 01:46:46;;;;;;;1.67;1.58;;;;;;;;;;5077141;28;20025;-25
2022/09/26 01:49:19;;;;;;;1.80;1.70;;;;;;;;;;5077054;28;20060;-29
2022/09/26 01:51:50;;;;;;;2.45;2.25;;;;;;;;;;5077091;28;20425;-26
2022/09/26 01:54:16;;;;;;;;;;;;;;;;;;5077820;28;20442;-26
2022/09/26 01:56:42;;;;;;;1.83;1.73;;;;;;;;;;5077015;28;19915;-25
2022/09/26 01:59:29;;;;;;;1.60;1.50;;;;;;;;;;5077169;28;20035;-27
2022/09/26 02:01:57;;;;;;;1.65;1.50;;;;;;;;;;5076951;28;20025;-27
2022/09/26 02:04:27;;;;;;;1.80;1.70;;;;;;;;;;5076661;28;20115;-27
2022/09/26 02:06:55;;;;;;;2.05;1.95;;;;;;;;;;5077045;28;20042;-29
2022/09/26 02:09:25;;;;;;;1.73;1.63;;;;;;;;;;5076661;28;20118;-27
2022/09/26 02:11:53;;;;;;;1.90;1.80;;;;;;;;;;5076671;28;20078;-26
2022/09/26 02:14:23;;;;;;;1.88;1.77;;;;;;;;;;5076615;28;20021;-28
2022/09/26 02:16:51;;;;;;;1.73;1.63;;;;;;;;;;5076600;28;20020;-29
2022/09/26 02:19:38;;;;;;;1.65;1.55;;;;;;;;;;5076560;28;20032;-27
2022/09/26 02:22:04;;;;;;;1.85;1.75;;;;;;;;;;5058781;28;20035;-27
2022/09/26 02:24:31;;;;;;;1.85;1.67;;;;;;;;;;5076463;28;20038;-28
2022/09/26 02:26:57;;;;;;;1.50;1.40;;;;;;;;;;5076419;28;20030;-25
2022/09/26 02:29:23;;;;;;;1.80;1.70;;;;;;;;;;5076565;28;20028;-26
2022/09/26 02:32:01;;;;;;;1.63;1.52;;;;;;;;;;5076285;28;20097;-26
2022/09/26 02:34:28;;;;;;;2.20;2.10;;;;;;;;;;5076535;28;20346;-25
2022/09/26 02:36:56;;;;;;;1.50;1.40;;;;;;;;;;5076461;28;20399;-25
2022/09/26 02:39:22;;;;;;;1.92;1.83;;;;;;;;;;5076415;28;20361;-26
2022/09/26 02:41:56;;;;;;;1.77;1.67;;;;;;;;;;5076042;28;20107;-25
2022/09/26 02:44:30;;;;;;;1.70;1.60;;;;;;;;;;5076388;28;20415;-27
2022/09/26 02:47:05;;;;;;;1.70;1.60;;;;;;;;;;5076005;28;20358;-25
2022/09/26 02:49:37;;;;;;;1.80;1.70;;;;;;;;;;5076153;28;20021;-28
2022/09/26 02:52:18;;;;;;;1.80;1.70;;;;;;;;;;5075869;28;20354;-26
2022/09/26 02:54:45;;;;;;;;;;;;;;;;;;5076203;28;20446;-27
2022/09/26 02:57:21;;;;;;;1.42;1.33;;;;;;;;;;5076350;28;19934;-30
2022/09/26 02:59:56;;;;;;;1.90;1.80;;;;;;;;;;5076034;28;20040;-29
2022/09/26 03:02:27;;;;;;;1.80;1.70;;;;;;;;;;5075929;28;20048;-26
2022/09/26 03:05:22;;;;;;;1.63;1.52;;;;;;;;;;5054582;28;20045;-26
2022/09/26 03:07:48;;;;;;;2.50;2.17;;;;;;;;;;5039313;28;20132;-28
2022/09/26 03:10:15;;;;;;;1.75;1.65;;;;;;;;;;5055785;28;20029;-25
2022/09/26 03:12:43;;;;;;;1.85;1.75;;;;;;;;;;5055436;28;20059;-25
2022/09/26 03:15:10;;;;;;;1.83;1.73;;;;;;;;;;5055454;28;20055;-28
2022/09/26 03:17:37;;;;;;;1.70;1.60;;;;;;;;;;5055414;28;20025;-26
2022/09/26 03:20:06;;;;;;;2.97;1.70;;;;;;;;;;5055368;28;20064;-25
2022/09/26 03:22:33;;;;;;;1.50;1.40;;;;;;;;;;5055242;28;20033;-32
2022/09/26 03:25:00;;;;;;;2.78;1.77;;;;;;;;;;5055531;28;20108;-27
2022/09/26 03:27:26;;;;;;;1.83;1.73;;;;;;;;;;5055554;28;20362;-28
2022/09/26 03:29:52;;;;;;;1.65;1.55;;;;;;;;;;5055422;28;20029;-25
2022/09/26 03:32:19;;;;;;;1.85;1.70;;;;;;;;;;5055043;28;20029;-29
2022/09/26 03:34:45;;;;;;;1.40;1.30;;;;;;;;;;5055018;28;20104;-26
2022/09/26 03:37:12;;;;;;;1.30;1.20;;;;;;;;;;5055087;28;20098;-27
2022/09/26 03:39:38;;;;;;;1.75;1.65;;;;;;;;;;5055301;28;20062;-25
2022/09/26 03:42:04;;;;;;;1.70;1.60;;;;;;;;;;5055217;28;20085;-26
2022/09/26 03:44:30;;;;;;;1.35;1.25;;;;;;;;;;5054900;28;20060;-25
2022/09/26 03:46:56;;;;;;;1.63;1.52;;;;;;;;;;5054924;28;20083;-26
2022/09/26 03:49:22;;;;;;;2.00;1.90;;;;;;;;;;5055121;28;20039;-25
2022/09/26 03:51:49;;;;;;;1.98;1.80;;;;;;;;;;5054833;28;20028;-26
2022/09/26 03:54:15;;;;;;;1.67;1.58;;;;;;;;;;5054687;28;20032;-26
2022/09/26 03:56:41;;;;;;;1.52;1.42;;;;;;;;;;5055061;28;20075;-25
2022/09/26 03:59:08;;;;;;;1.75;1.65;;;;;;;;;;5055141;28;20504;-26
2022/09/26 04:01:34;;;;;;;1.60;1.50;;;;;;;;;;5054790;28;20025;-26
2022/09/26 04:04:00;;;;;;;5.25;2.05;;;;;;;;;;5060661;28;20040;-25
2022/09/26 04:06:26;;;;;;;1.58;1.48;;;;;;;;;;5074494;28;20521;-26
2022/09/26 04:08:52;;;;;;;1.40;1.38;;;;;;;;;;5074588;28;20090;-27
2022/09/26 04:11:20;;;;;;;1.52;1.42;;;;;;;;;;5074418;28;20016;-26
2022/09/26 04:13:46;;;;;;;2.63;1.55;;;;;;;;;;5074358;28;20024;-26
2022/09/26 04:16:13;;;;;;;1.73;1.63;;;;;;;;;;5074483;28;20025;-27
2022/09/26 04:18:39;;;;;;;1.55;1.45;;;;;;;;;;5074429;28;20049;-25
2022/09/26 04:21:09;;;;;;;1.80;1.70;;;;;;;;;;5056747;28;20086;-27
2022/09/26 04:23:36;;;;;;;1.80;1.70;;;;;;;;;;5075089;28;20375;-29
2022/09/26 04:26:06;;;;;;;1.38;1.27;;;;;;;;;;5056661;28;20115;-26
2022/09/26 04:28:34;;;;;;;1.50;1.40;;;;;;;;;;5056642;28;20039;-30
2022/09/26 04:31:01;;;;;;;1.60;1.50;;;;;;;;;;5074234;28;20045;-27
2022/09/26 04:33:27;;;;;;;2.25;1.73;;;;;;;;;;5074238;28;20465;-30
2022/09/26 04:35:54;;;;;;;1.73;1.63;;;;;;;;;;5074275;28;20021;-26
2022/09/26 04:38:20;;;;;;;1.83;1.73;;;;;;;;;;5074245;28;20025;-26
2022/09/26 04:40:46;;;;;;;1.88;1.77;;;;;;;;;;5074491;28;20070;-26
2022/09/26 04:43:12;;;;;;;1.42;1.33;;;;;;;;;;5074295;28;20025;-26
2022/09/26 04:45:42;;;;;;;1.90;1.58;;;;;;;;;;5074164;28;20040;-26
2022/09/26 04:48:12;;;;;;;2.05;1.50;;;;;;;;;;5056541;28;20032;-25
2022/09/26 04:50:38;;;;;;;2.17;1.73;;;;;;;;;;5074023;28;20404;-29
2022/09/26 04:53:07;;;;;;;1.92;1.75;;;;;;;;;;5073957;28;20466;-25
2022/09/26 04:55:34;;;;;;;3.53;1.42;;;;;;;;;;5056433;28;20462;-25
2022/09/26 04:58:01;;;;;;;4.13;1.98;;;;;;;;;;5056374;28;20025;-25
2022/09/26 05:00:27;;;;;;;1.67;1.58;;;;;;;;;;5074076;28;20032;-28
2022/09/26 05:02:54;;;;;;;4.50;1.33;;;;;;;;;;5056312;28;20245;-26
2022/09/26 05:05:20;;;;;;;1.70;1.48;;;;;;;;;;5073858;28;20047;-27
2022/09/26 05:07:46;;;;;;;2.92;2.03;;;;;;;;;;5073971;28;20107;-27
2022/09/26 05:10:12;;;;;;;2.95;1.67;;;;;;;;;;5076385;28;20372;-24
2022/09/26 05:12:38;;;;;;;1.63;1.52;;;;;;;;;;5077540;28;20063;-26
2022/09/26 05:15:08;;;;;;;2.53;1.63;;;;;;;;;;5077451;28;20056;-26
2022/09/26 05:17:36;;;;;;;2.22;1.55;;;;;;;;;;5077411;28;20108;-29
2022/09/26 05:20:09;;;;;;;2.08;1.88;;;;;;;;;;5077370;28;20039;-26
2022/09/26 05:22:36;;;;;;;2.17;1.80;;;;;;;;;;5078022;28;20045;-29
2022/09/26 05:27:48;;;;;;;1.92;1.83;;;;;;;;;;5077597;28;20121;-29
2022/09/26 05:30:14;;;;;;;2.70;1.65;;;;;;;;;;5077268;28;20094;-28
2022/09/26 05:32:41;;;;;;;1.90;1.77;;;;;;;;;;5077216;28;20353;-27
2022/09/26 05:35:08;;;;;;;2.85;1.88;;;;;;;;;;5076905;28;20040;-26
2022/09/26 05:37:34;;;;;;;2.05;1.90;;;;;;;;;;5076867;28;20028;-28
2022/09/26 05:42:45;;;;;;;2.78;1.65;;;;;;;;;;5076941;28;20518;-27
2022/09/26 05:45:12;;;;;;;4.38;1.50;;;;;;;;;;5076665;28;20040;-25
2022/09/26 05:47:38;;;;;;;9.35;1.98;;;;;;;;;;5076606;28;20032;-24
2022/09/26 05:50:08;;;;;;;1.73;1.60;;;;;;;;;;5076634;28;20103;-25
2022/09/26 05:52:38;;;;;;;3.15;1.80;;;;;;;;;;5077369;28;20357;-29
2022/09/26 05:55:04;;;;;;;4.80;2.40;;;;;;;;;;5076893;28;20078;-28
2022/09/26 05:57:30;;;;;;;3.58;1.70;;;;;;;;;;5076558;28;20028;-27
2022/09/26 05:59:57;;;;;;;6.47;1.60;;;;;;;;;;5076653;28;20036;-25
2022/09/26 06:02:23;;;;;;;6.93;1.95;;;;;;;;;;5526196;22;20057;-29
2022/09/26 06:04:49;;;;;;;2.13;1.77;;;;;;;;;;5056816;28;20330;-29
2022/09/26 06:07:15;;;;;;;2.13;1.90;;;;;;;;;;5056362;28;20412;-29
2022/09/26 06:09:42;;;;;;;14.02;2.70;;;;;;;;;;5056545;28;20071;-29
2022/09/26 06:12:08;;;;;;;7.57;1.80;;;;;;;;;;5056280;28;20032;-29
2022/09/26 06:14:34;;;;;;;3.20;1.75;;;;;;;;;;5056485;28;20437;-29
2022/09/26 06:17:00;;;;;;;1.98;1.70;;;;;;;;;;5056189;28;20047;-29
2022/09/26 06:19:26;;;;;;;10.35;2.40;;;;;;;;;;5056499;28;20354;-30
2022/09/26 06:21:52;;;;;;;3.78;1.92;;;;;;;;;;5055481;28;20037;-28
2022/09/26 06:24:19;;;;;;;3.53;1.90;;;;;;;;;;5056183;28;20028;-28
2022/09/26 06:26:45;;;;;;;5.05;2.45;;;;;;;;;;5056457;28;20036;-27
2022/09/26 06:29:11;;;;;;;3.60;2.20;;;;;;;;;;5056508;28;20045;-28
2022/09/26 06:31:37;;;;;;;5.35;1.98;;;;;;;;;;5056514;28;20025;-28
2022/09/26 06:34:04;;;;;;;13.95;2.25;;;;;;;;;;5055879;28;20017;-29
2022/09/26 06:36:30;;;;;;;3.15;2.00;;;;;;;;;;5056254;28;20040;-29
2022/09/26 06:38:56;;;;;;;6.65;1.75;;;;;;;;;;5055750;28;20029;-29
2022/09/26 06:41:25;;;;;;;10.02;2.22;;;;;;;;;;5056001;28;20025;-29
2022/09/26 06:43:51;;;;;;;8.48;1.92;;;;;;;;;;5055758;28;20099;-29
2022/09/26 06:46:19;;;;;;;8.43;2.30;;;;;;;;;;5055784;28;20029;-29
2022/09/26 06:48:45;;;;;;;9.43;2.20;;;;;;;;;;5055656;28;20021;-29
2022/09/26 06:51:13;;;;;;;4.13;2.30;;;;;;;;;;5055401;28;20086;-29
2022/09/26 06:53:39;;;;;;;9.55;2.15;;;;;;;;;;5055353;28;20036;-30
2022/09/26 06:56:05;;;;;;;5.95;2.53;;;;;;;;;;5055499;28;20025;-29
2022/09/26 06:58:31;;;;;;;5.07;1.83;;;;;;;;;;5038330;28;20033;-29
2022/09/26 07:01:01;;;;;;;7.35;2.38;;;;;;;;;;5055582;28;20033;-29
2022/09/26 07:03:28;;;;;;;1.88;1.63;;;;;;;;;;5055045;28;20045;-29
2022/09/26 07:05:57;;;;;;;9.50;2.80;;;;;;;;;;5055438;28;20024;-29
2022/09/26 07:08:24;;;;;;;5.70;2.13;;;;;;;;;;5037761;28;20461;-29
2022/09/26 07:10:51;;;;;;;3.67;2.13;;;;;;;;;;5055489;28;20024;-29
2022/09/26 07:13:18;;;;;;;9.52;2.55;;;;;;;;;;5055026;28;20025;-29
2022/09/26 07:15:45;;;;;;;8.50;2.47;;;;;;;;;;5055025;28;20479;-29
2022/09/26 07:18:11;;;;;;;7.95;2.20;;;;;;;;;;5055216;28;20074;-29
2022/09/26 07:20:45;;;;;;;4.10;2.47;;;;;;;;;;5037473;28;20056;-30
2022/09/26 07:23:11;;;;;;;2.92;2.13;;;;;;;;;;5055274;28;20025;-29
2022/09/26 07:25:40;;;;;;;4.38;2.50;;;;;;;;;;5054843;28;20035;-29
2022/09/26 07:28:07;;;;;;;6.15;2.33;;;;;;;;;;5054915;28;20083;-29
2022/09/26 07:30:33;;;;;;;7.07;2.25;;;;;;;;;;5054862;28;20410;-29
2022/09/26 07:33:03;;;;;;;11.98;2.40;;;;;;;;;;5053754;28;20035;-29
2022/09/26 07:35:30;;;;;;;7.93;2.65;;;;;;;;;;5054912;28;20095;-29
2022/09/26 07:37:57;;;;;;;5.80;2.55;;;;;;;;;;5037377;28;20059;-29
2022/09/26 07:40:23;;;;;;;7.93;2.50;;;;;;;;;;5054993;28;20061;-30
2022/09/26 07:42:51;;;;;;;3.55;2.20;;;;;;;;;;5054674;28;20076;-30
2022/09/26 07:50:10;;;;;;;5.70;2.67;;;;;;;;;;5055190;28;20067;-30
2022/09/26 07:50:54;;;;;;;4.43;2.88;;;;;;;;;;5055150;28;20056;-29
2022/09/26 07:53:20;;;;;;;9.70;2.67;;;;;;;;;;5054618;28;20017;-30
2022/09/26 07:56:04;;;;;;;11.43;2.50;;;;;;;;;;5054840;28;20021;-29
2022/09/26 07:58:31;;;;;;;9.90;2.70;;;;;;;;;;5054815;28;20017;-27
2022/09/26 08:00:57;;;;;;;8.23;2.65;;;;;;;;;;5054709;28;20039;-30
2022/09/26 08:03:26;;;;;;;12.23;2.60;;;;;;;;;;5054194;28;20063;-30
2022/09/26 08:05:56;;;;;;;3.88;2.17;;;;;;;;;;5037010;28;20025;-29
2022/09/26 08:08:22;;;;;;;18.08;3.47;;;;;;;;;;5055045;28;20059;-29
2022/09/26 08:10:48;;;;;;;11.98;2.70;;;;;;;;;;5054543;28;20075;-29
2022/09/26 08:13:14;;;;;;;7.97;2.20;;;;;;;;;;5054277;28;20539;-29
2022/09/26 08:15:40;;;;;;;4.30;2.25;;;;;;;;;;5054134;28;20365;-30
2022/09/26 08:18:06;;;;;;;8.98;2.47;;;;;;;;;;5054270;28;20032;-30
2022/09/26 08:20:32;;;;;;;11.60;2.40;;;;;;;;;;5054325;28;20024;-30
2022/09/26 08:22:59;;;;;;;13.30;2.60;;;;;;;;;;5054157;28;20473;-29
2022/09/26 08:25:25;;;;;;;10.30;3.63;;;;;;;;;;5054046;28;20033;-28
2022/09/26 08:27:52;;;;;;;5.53;2.05;;;;;;;;;;5054776;28;20029;-28
2022/09/26 08:30:18;;;;;;;9.63;2.35;;;;;;;;;;5054037;28;20036;-28
2022/09/26 08:33:00;;;;;;;4.28;2.03;;;;;;;;;;5054004;28;20021;-28
2022/09/26 08:35:28;;;;;;;8.68;2.63;;;;;;;;;;5054191;28;20369;-29
2022/09/26 08:37:55;;;;;;;10.10;2.50;;;;;;;;;;5054304;28;20045;-27
2022/09/26 08:40:24;;;;;;;15.57;2.50;;;;;;;;;;5037398;28;20033;-28
2022/09/26 08:43:03;;;;;;;4.35;2.30;;;;;;;;;;5055243;28;20029;-28
2022/09/26 08:48:20;;;;;;;11.10;2.45;;;;;;;;;;5058295;28;20039;-28
2022/09/26 08:50:51;;;;;;;6.80;2.58;;;;;;;;;;5058079;28;20037;-28
2022/09/26 08:53:23;;;;;;;6.60;2.28;;;;;;;;;;5041521;28;20024;-28
2022/09/26 08:55:50;;;;;;;6.38;2.00;;;;;;;;;;5057911;28;20029;-28
2022/09/26 08:58:21;;;;;;;7.72;2.15;;;;;;;;;;5057751;28;20029;-28
2022/09/26 09:00:50;;;;;;;7.53;2.17;;;;;;;;;;5040066;28;20025;-28
2022/09/26 09:03:27;;;;;;;10.30;2.05;;;;;;;;;;5057400;28;20472;-28
2022/09/26 09:06:19;;;;;;;6.50;2.60;;;;;;;;;;5057512;28;20032;-28
2022/09/26 09:08:50;;;;;;;12.10;3.40;;;;;;;;;;5054622;28;20029;-28
2022/09/26 09:11:16;;;;;;;;;;;;;;;;;;5058110;28;20407;-28
2022/09/26 09:13:44;;;;;;;5.03;2.45;;;;;;;;;;5057753;28;19909;-28
2022/09/26 09:16:17;;;;;;;13.10;2.50;;;;;;;;;;5057673;28;20359;-28
2022/09/26 09:18:57;;;;;;;6.90;3.15;;;;;;;;;;5057280;28;20029;-28
2022/09/26 09:21:24;;;;;;;12.98;2.67;;;;;;;;;;5057335;28;20362;-28
2022/09/26 09:23:55;;;;;;;10.80;2.63;;;;;;;;;;5057394;28;20025;-28
2022/09/26 09:26:26;;;;;;;5.65;2.65;;;;;;;;;;5057612;28;20108;-29
2022/09/26 09:29:11;;;;;;;9.00;2.22;;;;;;;;;;5057629;28;20055;-29
2022/09/26 09:31:40;;;;;;;10.15;2.60;;;;;;;;;;5039550;28;20037;-28
2022/09/26 09:34:10;;;;;;;2.40;2.20;;;;;;;;;;5056975;28;20044;-29
2022/09/26 09:36:39;;;;;;;9.20;2.35;;;;;;;;;;5057090;28;20037;-29
2022/09/26 09:39:06;;;;;;;11.85;2.45;;;;;;;;;;5058098;28;20102;-29
2022/09/26 09:41:52;;;;;;;7.80;3.42;;;;;;;;;;5057233;28;20175;-29
2022/09/26 09:44:18;;;;;;;5.13;2.65;;;;;;;;;;5057279;28;20054;-29
2022/09/26 09:46:44;;;;;;;7.65;2.30;;;;;;;;;;5057057;28;20368;-28
2022/09/26 09:49:17;;;;;;;7.85;2.67;;;;;;;;;;5057162;28;20060;-29
2022/09/26 09:51:43;;;;;;;18.77;3.10;;;;;;;;;;5057128;28;20157;-29
2022/09/26 09:54:12;;;;;;;9.40;2.85;;;;;;;;;;5056821;28;20036;-28
2022/09/26 09:56:38;;;;;;;14.52;3.65;;;;;;;;;;5055888;28;20346;-29
2022/09/26 09:59:07;;;;;;;8.63;3.15;;;;;;;;;;5056762;28;20068;-28
2022/09/26 10:01:37;;;;;;;5.53;2.50;;;;;;;;;;5056522;28;20461;-29
2022/09/26 10:04:06;;;;;;;14.05;2.95;;;;;;;;;;5056097;28;20064;-28
2022/09/26 10:06:33;;;;;;;10.77;2.92;;;;;;;;;;5056499;28;20040;-29
2022/09/26 10:09:04;;;;;;;14.63;2.97;;;;;;;;;;5056653;28;20036;-29
2022/09/26 10:11:41;;;;;;;12.35;2.85;;;;;;;;;;5056550;28;20090;-29
2022/09/26 10:14:15;;;;;;;14.85;2.97;;;;;;;;;;5056444;28;20036;-29
2022/09/26 10:17:00;;;;;;;6.22;3.20;;;;;;;;;;5056345;28;20108;-29
2022/09/26 10:19:35;;;;;;;7.93;2.47;;;;;;;;;;5056624;28;20029;-28
2022/09/26 10:22:02;;;;;;;4.50;2.50;;;;;;;;;;5056107;28;20029;-29
2022/09/26 10:24:33;;;;;;;11.70;3.13;;;;;;;;;;5056324;28;20446;-29
2022/09/26 10:26:59;;;;;;;;;;;;;;;;;;5056526;28;20060;-30
2022/09/26 10:29:35;;;;;;;8.77;2.47;;;;;;;;;;5056057;28;19923;-29
2022/09/26 10:32:02;;;;;;;7.93;2.38;;;;;;;;;;5056564;28;20029;-28
2022/09/26 10:34:29;;;;;;;7.28;2.60;;;;;;;;;;5056062;28;20504;-28
2022/09/26 10:36:56;;;;;;;4.78;2.47;;;;;;;;;;5056335;28;20092;-28
2022/09/26 10:42:20;;;;;;;4.60;2.38;;;;;;;;;;5056854;28;20048;-29
2022/09/26 10:44:48;;;;;;;11.00;3.13;;;;;;;;;;5057026;28;20021;-29
2022/09/26 10:47:16;;;;;;;9.77;2.72;;;;;;;;;;5038851;28;20060;-29
2022/09/26 10:49:53;;;;;;;13.60;4.30;;;;;;;;;;5055724;28;20031;-29
2022/09/26 10:52:30;;;;;;;10.55;2.95;;;;;;;;;;5056662;28;20362;-29
2022/09/26 10:55:05;;;;;;;8.50;2.95;;;;;;;;;;5057302;28;20029;-30
2022/09/26 10:57:35;;;;;;;11.27;3.28;;;;;;;;;;5056384;28;20342;-30
2022/09/26 11:00:05;;;;;;;9.65;3.75;;;;;;;;;;5056070;28;20078;-28
2022/09/26 11:02:32;;;;;;;10.27;2.88;;;;;;;;;;5055629;28;20025;-28
2022/09/26 11:07:47;;;;;;;5.43;2.58;;;;;;;;;;5055447;28;20063;-28
2022/09/26 11:10:14;;;;;;;17.38;2.67;;;;;;;;;;5055242;28;20503;-29
2022/09/26 11:12:55;;;;;;;10.40;3.30;;;;;;;;;;5055319;28;20083;-28
2022/09/26 11:15:22;;;;;;;14.30;3.20;;;;;;;;;;5055571;28;20036;-29
2022/09/26 11:17:52;;;;;;;7.57;3.10;;;;;;;;;;5054938;28;20053;-28
2022/09/26 11:20:19;;;;;;;13.67;4.23;;;;;;;;;;5055201;28;20021;-28
2022/09/26 11:23:01;;;;;;;18.10;3.42;;;;;;;;;;5054839;28;20136;-28
2022/09/26 11:25:30;;;;;;;15.70;2.78;;;;;;;;;;5054761;28;20029;-28
2022/09/26 11:28:10;;;;;;;5.90;2.30;;;;;;;;;;5054852;28;20028;-27
2022/09/26 11:30:39;;;;;;;7.88;2.38;;;;;;;;;;5054710;28;20032;-28
2022/09/26 11:33:10;;;;;;;16.42;3.00;;;;;;;;;;5054807;28;20067;-28
2022/09/26 11:35:55;;;;;;;8.93;2.88;;;;;;;;;;5055012;28;20037;-27
2022/09/26 11:38:22;;;;;;;20.77;5.50;;;;;;;;;;5036953;28;20025;-29
2022/09/26 11:41:07;;;;;;;14.23;3.00;;;;;;;;;;5037111;28;20381;-28
2022/09/26 11:43:58;;;;;;;13.05;2.55;;;;;;;;;;5054675;28;20112;-28
2022/09/26 11:46:24;;;;;;;;;;;;;;;;;;5037367;28;20112;-29
2022/09/26 11:48:59;;;;;;;21.25;2.85;;;;;;;;;;5054586;28;19977;-28
2022/09/26 11:51:25;;;;;;;13.98;3.58;;;;;;;;;;5054967;28;20120;-29
2022/09/26 11:54:01;;;;;;;8.85;2.40;;;;;;;;;;5054815;28;20080;-29
2022/09/26 11:56:30;;;;;;;9.73;3.10;;;;;;;;;;5037589;28;20025;-28
2022/09/26 11:59:12;;;;;;;6.75;2.97;;;;;;;;;;5054905;28;20335;-29
2022/09/26 12:01:44;;;;;;;9.65;2.40;;;;;;;;;;5055276;28;20051;-29
2022/09/26 12:04:25;;;;;;;10.75;2.53;;;;;;;;;;5054097;28;20077;-29
2022/09/26 12:07:17;;;;;;;17.15;3.50;;;;;;;;;;5054418;28;20373;-29
2022/09/26 12:09:58;;;;;;;6.90;3.13;;;;;;;;;;5034113;28;20041;-29
2022/09/26 12:12:31;;;;;;;14.20;2.78;;;;;;;;;;5054292;28;20021;-28
2022/09/26 12:15:10;;;;;;;12.85;3.33;;;;;;;;;;5054501;28;20033;-28
2022/09/26 12:17:48;;;;;;;16.73;4.78;;;;;;;;;;5054565;28;20457;-29
2022/09/26 12:20:33;;;;;;;11.73;3.03;;;;;;;;;;5054032;28;20040;-29
2022/09/26 12:23:07;;;;;;;21.98;4.15;;;;;;;;;;5055308;28;20025;-29
2022/09/26 12:25:54;;;;;;;11.20;2.35;;;;;;;;;;5054075;28;20166;-29
2022/09/26 12:28:30;;;;;;;18.35;3.42;;;;;;;;;;5054134;28;20043;-29
2022/09/26 12:30:59;;;;;;;17.58;3.20;;;;;;;;;;5054016;28;20037;-29
2022/09/26 12:33:31;;;;;;;10.73;2.90;;;;;;;;;;5053684;28;20131;-29
2022/09/26 12:35:58;;;;;;;10.38;3.17;;;;;;;;;;5036131;28;20025;-29
2022/09/26 12:38:24;;;;;;;13.23;3.92;;;;;;;;;;5054395;28;20092;-32
2022/09/26 12:41:01;;;;;;;9.10;3.17;;;;;;;;;;5037549;28;20041;-28
2022/09/26 12:43:53;;;;;;;9.27;3.20;;;;;;;;;;5054579;28;20527;-29
2022/09/26 12:46:38;;;;;;;20.67;3.25;;;;;;;;;;5054149;28;20029;-29
2022/09/26 12:49:19;;;;;;;20.58;3.25;;;;;;;;;;5053587;28;20060;-29
2022/09/26 12:51:47;;;;;;;11.27;3.25;;;;;;;;;;5053915;28;20033;-29
2022/09/26 12:54:52;;;;;;;16.48;3.50;;;;;;;;;;5053343;28;20082;-29
2022/09/26 12:57:20;;;;;;;11.77;2.67;;;;;;;;;;4973883;28;20042;-29
2022/09/26 13:00:08;;;;;;;27.05;3.67;;;;;;;;;;4973748;28;20105;-28
2022/09/26 13:02:53;;;;;;;8.68;4.47;;;;;;;;;;5024541;28;20052;-28
2022/09/26 13:05:29;;;;;;;12.95;3.03;;;;;;;;;;5054419;28;20432;-28
2022/09/26 13:08:00;;;;;;;12.18;3.00;;;;;;;;;;5037113;28;20051;-28
2022/09/26 13:10:27;;;;;;;10.73;3.58;;;;;;;;;;5053965;28;20033;-29
2022/09/26 13:12:56;;;;;;;20.02;3.60;;;;;;;;;;5054699;28;20029;-28
2022/09/26 13:15:33;;;;;;;11.77;3.28;;;;;;;;;;5054667;28;20035;-28
2022/09/26 13:18:04;;;;;;;8.85;2.75;;;;;;;;;;5054545;28;20017;-28
2022/09/26 13:20:39;;;;;;;13.45;2.90;;;;;;;;;;5054455;28;20342;-29
2022/09/26 13:23:08;;;;;;;11.35;3.38;;;;;;;;;;5053919;28;20445;-28
2022/09/26 13:25:44;;;;;;;16.05;3.33;;;;;;;;;;5036451;28;20452;-28
2022/09/26 13:28:30;;;;;;;9.73;2.60;;;;;;;;;;5053575;28;20417;-28
2022/09/26 13:31:03;;;;;;;11.77;2.70;;;;;;;;;;5041792;28;20037;-28
2022/09/26 13:33:38;;;;;;;11.63;3.00;;;;;;;;;;5057100;28;20476;-28
2022/09/26 13:36:06;;;;;;;15.10;2.55;;;;;;;;;;5057278;28;20042;-28
2022/09/26 13:38:38;;;;;;;12.23;2.85;;;;;;;;;;5057036;28;20032;-28
2022/09/26 13:41:20;;;;;;;8.82;2.65;;;;;;;;;;5056637;28;20457;-28
2022/09/26 13:43:52;;;;;;;20.80;3.90;;;;;;;;;;5056771;28;20361;-28
2022/09/26 13:46:33;;;;;;;6.13;2.25;;;;;;;;;;5057072;28;20059;-29
2022/09/26 13:49:18;;;;;;;7.70;2.40;;;;;;;;;;5056885;28;20032;-29
2022/09/26 13:51:50;;;;;;;6.93;2.95;;;;;;;;;;5056854;28;20056;-29
2022/09/26 13:54:44;;;;;;;12.98;2.65;;;;;;;;;;5039072;28;20402;-28
2022/09/26 13:57:31;;;;;;;6.38;2.33;;;;;;;;;;5056618;28;20037;-28
2022/09/26 13:59:58;;;;;;;12.57;2.55;;;;;;;;;;5056909;28;20453;-29
2022/09/26 14:02:28;;;;;;;8.32;2.63;;;;;;;;;;5038510;28;20063;-29
2022/09/26 14:05:00;;;;;;;13.57;3.05;;;;;;;;;;5056598;28;20057;-29
2022/09/26 14:10:39;;;;;;;10.57;2.58;;;;;;;;;;5056289;28;20048;-29
2022/09/26 14:13:24;;;;;;;7.75;3.13;;;;;;;;;;5056178;28;20446;-29
2022/09/26 14:15:50;;;;;;;9.57;3.47;;;;;;;;;;5038525;28;20021;-29
2022/09/26 14:18:22;;;;;;;9.63;2.78;;;;;;;;;;5056398;28;20025;-29
2022/09/26 14:21:03;;;;;;;8.48;2.88;;;;;;;;;;5056115;28;20021;-28
2022/09/26 14:23:48;;;;;;;9.38;2.65;;;;;;;;;;5055961;28;20099;-29
2022/09/26 14:26:26;;;;;;;17.90;5.10;;;;;;;;;;5056275;28;20068;-29
2022/09/26 14:28:56;;;;;;;19.02;2.83;;;;;;;;;;5056192;28;20040;-30
2022/09/26 14:31:25;;;;;;;9.00;3.42;;;;;;;;;;5056646;28;20503;-30
2022/09/26 14:34:10;;;;;;;8.40;2.90;;;;;;;;;;5056588;28;20096;-29
2022/09/26 14:36:36;;;;;;;8.85;2.45;;;;;;;;;;5055904;28;20032;-29
2022/09/26 14:39:03;;;;;;;13.63;3.22;;;;;;;;;;5056064;28;20021;-28
2022/09/26 14:41:32;;;;;;;16.17;3.53;;;;;;;;;;5055390;28;20033;-29
2022/09/26 14:44:01;;;;;;;6.80;2.33;;;;;;;;;;5037959;28;20036;-29
2022/09/26 14:46:31;;;;;;;11.18;3.33;;;;;;;;;;5055614;28;20061;-29
2022/09/26 14:49:04;;;;;;;12.20;2.90;;;;;;;;;;5055924;28;20032;-28
2022/09/26 14:51:40;;;;;;;11.57;2.83;;;;;;;;;;5055624;28;20040;-28
2022/09/26 14:54:15;;;;;;;15.25;2.92;;;;;;;;;;5055582;28;20365;-29
2022/09/26 14:56:44;;;;;;;13.60;2.97;;;;;;;;;;5055658;28;20016;-29
2022/09/26 14:59:16;;;;;;;13.45;2.80;;;;;;;;;;5055653;28;20045;-29
2022/09/26 15:01:43;;;;;;;11.35;2.58;;;;;;;;;;5055286;28;20025;-28
2022/09/26 15:04:14;;;;;;;11.90;3.47;;;;;;;;;;5034256;28;20045;-29
2022/09/26 15:06:46;;;;;;;12.27;3.17;;;;;;;;;;5035690;28;20053;-29
2022/09/26 15:09:23;;;;;;;10.90;2.90;;;;;;;;;;5035416;28;20021;-29
2022/09/26 15:11:57;;;;;;;12.82;2.80;;;;;;;;;;5034705;28;20107;-28
2022/09/26 15:14:38;;;;;;;13.35;2.88;;;;;;;;;;5035429;28;20056;-29
2022/09/26 15:17:05;;;;;;;14.55;4.10;;;;;;;;;;5035512;28;20080;-29
2022/09/26 15:19:34;;;;;;;9.70;2.45;;;;;;;;;;5035151;28;20033;-29
2022/09/26 15:22:01;;;;;;;8.85;2.95;;;;;;;;;;5035078;28;20104;-29